Time;durP1;ratioP1;P1;durP2;ratioP2;P2;SDS_P1;SDS_P2;PMS_P1;PMS_P2;Temp;Humidity;BMP_temperature;BMP_pressure;BME280_temperature;BME280_humidity;BME280_pressure;Samples;Min_cycle;Max_cycle;Signal;HPM_P1;HPM_P2
2022/08/03 00:00:42;;;;;;;2.80;2.47;;;18.50;99.90;;;;;;5097451;28;20241;-95
2022/08/03 00:03:07;;;;;;;3.35;2.38;;;18.50;99.90;;;;;;5115997;28;20563;-96
2022/08/03 00:05:35;;;;;;;4.22;2.40;;;18.50;99.90;;;;;;5115076;28;20213;-96
2022/08/03 00:08:00;;;;;;;3.60;2.53;;;18.50;99.90;;;;;;5114923;28;20204;-95
2022/08/03 00:10:26;;;;;;;5.10;2.95;;;18.50;99.90;;;;;;5114488;28;20299;-95
2022/08/03 00:12:52;;;;;;;3.25;2.35;;;18.50;99.90;;;;;;5119186;28;20170;-95
2022/08/03 00:15:18;;;;;;;4.75;2.33;;;18.50;99.90;;;;;;5117432;28;20174;-95
2022/08/03 00:17:44;;;;;;;3.70;2.20;;;18.50;99.90;;;;;;5115671;28;20216;-95
2022/08/03 00:20:11;;;;;;;2.72;2.30;;;18.60;99.90;;;;;;5116090;28;20241;-96
2022/08/03 00:22:36;;;;;;;2.40;2.20;;;18.60;99.90;;;;;;5118318;28;20181;-95
2022/08/03 00:25:02;;;;;;;3.45;2.00;;;18.60;99.90;;;;;;5120374;28;20178;-95
2022/08/03 00:27:28;;;;;;;3.30;1.73;;;18.60;99.90;;;;;;5118356;28;20308;-94
2022/08/03 00:29:54;;;;;;;3.75;2.30;;;18.60;99.90;;;;;;5118489;28;20208;-95
2022/08/03 00:32:19;;;;;;;3.22;2.30;;;18.60;99.90;;;;;;5120362;28;20186;-95
2022/08/03 00:34:45;;;;;;;2.97;1.90;;;18.60;99.90;;;;;;5118895;28;20224;-96
2022/08/03 00:37:10;;;;;;;3.20;1.98;;;18.60;99.90;;;;;;5118687;28;20177;-96
2022/08/03 00:39:36;;;;;;;2.38;1.83;;;18.60;99.90;;;;;;5118530;28;20177;-95
2022/08/03 00:42:05;;;;;;;2.38;1.92;;;18.60;99.90;;;;;;5118489;28;20182;-96
2022/08/03 00:44:31;;;;;;;2.83;1.92;;;18.70;99.90;;;;;;5118148;28;20170;-93
2022/08/03 00:46:56;;;;;;;2.97;2.35;;;18.70;99.90;;;;;;5119483;27;20638;-96
2022/08/03 00:49:23;;;;;;;2.42;2.00;;;18.70;99.90;;;;;;5118106;28;20250;-96
2022/08/03 00:51:48;;;;;;;2.05;1.85;;;18.70;99.90;;;;;;5118550;28;20174;-96
2022/08/03 00:54:15;;;;;;;3.00;2.05;;;18.70;99.90;;;;;;5100517;28;20185;-96
2022/08/03 00:56:42;;;;;;;2.63;1.92;;;18.80;99.90;;;;;;5118106;28;20229;-96
2022/08/03 00:59:09;;;;;;;2.08;1.73;;;18.80;99.90;;;;;;5118282;28;20182;-96
2022/08/03 01:01:35;;;;;;;2.78;2.03;;;18.80;99.90;;;;;;5116633;28;20229;-96
2022/08/03 01:04:01;;;;;;;2.25;1.75;;;18.80;99.90;;;;;;5117615;28;20170;-96
2022/08/03 01:06:51;;;;;;;2.55;2.35;;;18.90;99.90;;;;;;5118635;28;20196;-96
2022/08/03 01:09:19;;;;;;;4.38;2.17;;;18.90;99.90;;;;;;5117614;28;20181;-96
2022/08/03 01:11:45;;;;;;;5.68;2.10;;;18.90;99.90;;;;;;5118052;28;20178;-96
2022/08/03 01:14:20;;;;;;;5.03;1.90;;;18.90;99.90;;;;;;5119323;28;20531;-96
2022/08/03 01:16:58;;;;;;;3.55;2.08;;;18.90;99.90;;;;;;5120104;28;20166;-96
2022/08/03 01:19:35;;;;;;;2.92;2.42;;;18.90;99.90;;;;;;5119854;28;20201;-93
2022/08/03 01:22:38;;;;;;;2.33;2.00;;;18.80;99.90;;;;;;5122855;28;20176;-91
2022/08/03 01:25:15;;;;;;;2.63;2.08;;;18.80;99.90;;;;;;5136092;28;20189;-91
2022/08/03 01:28:01;;;;;;;2.17;1.95;;;18.80;99.90;;;;;;5135254;28;20185;-91
2022/08/03 01:30:31;;;;;;;2.05;1.55;;;18.80;99.90;;;;;;5127678;27;20168;-95
2022/08/03 01:33:02;;;;;;;2.17;1.80;;;18.80;99.90;;;;;;5117249;28;20292;-95
2022/08/03 01:35:30;;;;;;;3.30;2.05;;;18.70;99.90;;;;;;5119311;28;20219;-95
2022/08/03 01:37:59;;;;;;;2.08;1.80;;;18.70;99.90;;;;;;5118799;28;20177;-95
2022/08/03 01:40:27;;;;;;;4.57;2.42;;;18.70;99.90;;;;;;5117317;28;20205;-94
2022/08/03 01:42:56;;;;;;;4.25;2.47;;;18.70;99.90;;;;;;5118234;28;20622;-95
2022/08/03 01:45:23;;;;;;;2.75;1.98;;;18.60;99.90;;;;;;5117214;28;20181;-95
2022/08/03 01:47:50;;;;;;;2.53;1.58;;;18.70;99.90;;;;;;5117787;28;20181;-95
2022/08/03 01:50:21;;;;;;;1.90;1.63;;;18.70;99.90;;;;;;5116793;28;20178;-95
2022/08/03 01:52:47;;;;;;;2.45;1.90;;;18.70;99.90;;;;;;5119616;28;20211;-95
2022/08/03 01:55:17;;;;;;;3.47;2.10;;;18.70;99.90;;;;;;5127150;28;20195;-96
2022/08/03 01:57:44;;;;;;;3.22;1.73;;;18.70;99.90;;;;;;5126164;28;20174;-96
2022/08/03 02:00:10;;;;;;;3.90;1.88;;;18.70;99.90;;;;;;5123008;28;20230;-95
2022/08/03 02:02:37;;;;;;;5.03;2.08;;;18.70;99.90;;;;;;5087345;28;20171;-96
2022/08/03 02:05:07;;;;;;;3.33;2.22;;;18.60;99.90;;;;;;5120442;28;20179;-95
2022/08/03 02:07:33;;;;;;;2.40;1.88;;;18.60;99.90;;;;;;5120422;28;20186;-95
2022/08/03 02:10:01;;;;;;;3.85;2.10;;;18.60;99.90;;;;;;5102960;28;20174;-94
2022/08/03 02:12:28;;;;;;;2.70;2.10;;;18.60;99.90;;;;;;5105872;28;20185;-96
2022/08/03 02:14:55;;;;;;;3.92;2.42;;;18.60;99.90;;;;;;5097131;28;20174;-96
2022/08/03 02:17:22;;;;;;;2.75;2.08;;;18.60;99.90;;;;;;5079407;28;20573;-95
2022/08/03 02:19:50;;;;;;;7.03;2.80;;;18.60;99.90;;;;;;5096805;28;20174;-95
2022/08/03 02:22:16;;;;;;;2.95;2.17;;;18.60;99.90;;;;;;5097094;28;20182;-96
2022/08/03 02:24:42;;;;;;;2.75;2.17;;;18.60;99.90;;;;;;5079362;28;20174;-95
2022/08/03 02:27:20;;;;;;;2.22;1.73;;;18.60;99.90;;;;;;5062141;28;20181;-96
2022/08/03 02:29:51;;;;;;;6.03;2.22;;;18.60;99.90;;;;;;5097157;28;20166;-91
2022/08/03 02:32:23;;;;;;;4.32;2.13;;;18.60;99.90;;;;;;5097113;28;20163;-96
2022/08/03 02:34:53;;;;;;;2.80;1.90;;;18.60;99.90;;;;;;5078663;28;20196;-96
2022/08/03 02:37:22;;;;;;;4.80;1.90;;;18.60;99.90;;;;;;5078826;28;20231;-95
2022/08/03 02:39:52;;;;;;;2.90;2.03;;;18.60;99.90;;;;;;5096521;28;20327;-94
2022/08/03 02:42:21;;;;;;;3.17;2.00;;;18.60;99.90;;;;;;5078631;28;20273;-95
2022/08/03 02:44:48;;;;;;;2.35;1.98;;;18.60;99.90;;;;;;5060928;28;20171;-95
2022/08/03 02:47:15;;;;;;;3.03;2.65;;;18.60;99.90;;;;;;5078819;28;20182;-94
2022/08/03 02:49:42;;;;;;;3.00;2.00;;;18.60;99.90;;;;;;5096872;28;20181;-95
2022/08/03 02:52:09;;;;;;;4.18;2.45;;;18.60;99.90;;;;;;5061687;28;20193;-95
2022/08/03 02:54:36;;;;;;;3.10;2.00;;;18.60;99.90;;;;;;5078466;28;20232;-95
2022/08/03 02:57:03;;;;;;;3.28;2.25;;;18.60;99.90;;;;;;5096147;28;20189;-95
2022/08/03 02:59:31;;;;;;;4.13;2.42;;;18.60;99.90;;;;;;5095977;28;20232;-95
2022/08/03 03:01:59;;;;;;;2.22;1.77;;;18.60;99.90;;;;;;5111253;28;20320;-95
2022/08/03 03:04:27;;;;;;;3.22;1.95;;;18.60;99.90;;;;;;5117192;28;20166;-95
2022/08/03 03:06:53;;;;;;;4.65;2.03;;;18.60;99.90;;;;;;5117046;28;20174;-95
2022/08/03 03:09:19;;;;;;;3.03;2.15;;;18.60;99.90;;;;;;5116194;27;20186;-96
2022/08/03 03:11:46;;;;;;;3.80;2.58;;;18.60;99.90;;;;;;5115783;28;20174;-96
2022/08/03 03:14:13;;;;;;;3.97;2.13;;;18.60;99.90;;;;;;5115631;28;20177;-96
2022/08/03 03:16:41;;;;;;;5.15;2.40;;;18.60;99.90;;;;;;5116453;28;20657;-96
2022/08/03 03:19:10;;;;;;;3.35;2.47;;;18.60;99.90;;;;;;5115249;28;20308;-96
2022/08/03 03:21:36;;;;;;;4.38;2.70;;;18.60;99.90;;;;;;5116557;28;20197;-94
2022/08/03 03:24:04;;;;;;;2.97;2.45;;;18.60;99.90;;;;;;5116377;28;20178;-95
2022/08/03 03:26:29;;;;;;;2.45;1.75;;;18.70;99.90;;;;;;5098246;28;20174;-95
2022/08/03 03:28:56;;;;;;;3.72;2.17;;;18.80;99.90;;;;;;5097613;28;20178;-94
2022/08/03 03:31:22;;;;;;;3.45;2.35;;;18.80;99.90;;;;;;5115752;28;20186;-94
2022/08/03 03:33:47;;;;;;;3.40;2.47;;;18.80;99.90;;;;;;5115919;28;20571;-95
2022/08/03 03:36:13;;;;;;;3.22;2.40;;;18.90;99.90;;;;;;5097733;28;20591;-95
2022/08/03 03:38:39;;;;;;;4.40;2.78;;;18.90;99.90;;;;;;5105955;28;20213;-95
2022/08/03 03:41:05;;;;;;;2.70;2.22;;;19.00;99.90;;;;;;5086460;28;20259;-94
2022/08/03 03:43:31;;;;;;;4.78;2.30;;;19.00;99.90;;;;;;5104421;28;20184;-96
2022/08/03 03:45:57;;;;;;;5.75;2.22;;;19.00;99.90;;;;;;5099925;28;20190;-92
2022/08/03 03:48:24;;;;;;;3.15;2.17;;;18.90;99.90;;;;;;5103556;28;20178;-94
2022/08/03 03:50:50;;;;;;;4.90;2.42;;;19.00;99.90;;;;;;5102455;28;20289;-93
2022/08/03 03:53:15;;;;;;;3.45;2.47;;;19.00;99.90;;;;;;5113129;28;20209;-95
2022/08/03 03:55:41;;;;;;;3.80;2.30;;;19.00;99.90;;;;;;5111400;28;20268;-95
2022/08/03 03:58:07;;;;;;;3.17;2.30;;;19.00;99.90;;;;;;5108428;28;20290;-94
2022/08/03 04:00:33;;;;;;;3.78;2.20;;;19.10;99.90;;;;;;5108594;28;20288;-95
2022/08/03 04:03:00;;;;;;;5.13;2.08;;;19.10;99.90;;;;;;5091360;28;20673;-92
2022/08/03 04:11:21;;;;;;;3.05;2.20;;;19.20;99.90;;;;;;5090120;28;20197;-96
2022/08/03 04:13:54;;;;;;;2.30;2.10;;;19.20;99.90;;;;;;5086128;28;20171;-96
2022/08/03 04:16:23;;;;;;;3.65;2.50;;;19.20;99.90;;;;;;5089555;28;20203;-95
2022/08/03 04:18:52;;;;;;;1.88;1.55;;;19.30;99.90;;;;;;5091439;28;20175;-95
2022/08/03 04:21:22;;;;;;;2.20;2.00;;;19.40;99.90;;;;;;5086537;28;20259;-95
2022/08/03 04:23:50;;;;;;;3.17;1.60;;;19.50;99.90;;;;;;5083448;28;20180;-95
2022/08/03 04:26:20;;;;;;;1.70;1.55;;;19.50;99.90;;;;;;5066834;28;20175;-96
2022/08/03 04:28:48;;;;;;;2.75;1.92;;;19.60;99.90;;;;;;5085161;28;20171;-96
2022/08/03 04:31:15;;;;;;;2.45;1.70;;;19.60;99.90;;;;;;5063321;28;20650;-96
2022/08/03 04:33:43;;;;;;;3.65;2.10;;;19.70;99.90;;;;;;5086884;28;20171;-94
2022/08/03 04:36:13;;;;;;;5.72;2.22;;;19.70;99.90;;;;;;5083414;28;20624;-95
2022/08/03 04:38:49;;;;;;;2.45;1.52;;;19.80;99.90;;;;;;5066916;28;20250;-95
2022/08/03 04:41:15;;;;;;;3.25;1.60;;;19.90;99.90;;;;;;5066570;28;20221;-95
2022/08/03 04:43:41;;;;;;;1.98;1.38;;;19.90;99.90;;;;;;5083553;28;20660;-94
2022/08/03 04:46:08;;;;;;;1.23;1.10;;;19.90;99.90;;;;;;5074435;28;20187;-94
2022/08/03 04:48:34;;;;;;;1.77;1.67;;;19.90;99.90;;;;;;5059156;28;20257;-95
2022/08/03 04:51:03;;;;;;;1.75;1.40;;;19.90;99.90;;;;;;5050303;28;20213;-94
2022/08/03 04:53:29;;;;;;;2.78;1.70;;;19.90;99.90;;;;;;5058024;28;20203;-95
2022/08/03 04:55:55;;;;;;;2.25;1.38;;;19.80;99.90;;;;;;5083568;28;20624;-95
2022/08/03 04:58:20;;;;;;;3.88;1.45;;;19.80;99.90;;;;;;5035475;28;20183;-96
2022/08/03 05:00:49;;;;;;;2.20;1.30;;;19.80;99.90;;;;;;5074804;28;20242;-95
2022/08/03 05:03:15;;;;;;;1.65;1.55;;;19.90;99.90;;;;;;5074435;28;20167;-96
2022/08/03 05:05:41;;;;;;;1.40;1.30;;;19.90;99.90;;;;;;5059588;28;20259;-95
2022/08/03 05:08:06;;;;;;;1.50;1.40;;;19.90;99.90;;;;;;5085618;28;20210;-95
2022/08/03 05:10:32;;;;;;;5.10;1.52;;;20.00;99.90;;;;;;5068928;28;20703;-96
2022/08/03 05:12:57;;;;;;;2.22;1.45;;;20.10;99.90;;;;;;5054161;28;20187;-95
2022/08/03 05:15:23;;;;;;;2.30;1.65;;;20.20;99.90;;;;;;5083734;28;20233;-94
2022/08/03 05:17:48;;;;;;;1.80;1.40;;;20.10;99.90;;;;;;5061672;28;20186;-95
2022/08/03 05:20:14;;;;;;;1.60;1.40;;;20.20;99.90;;;;;;5086369;28;20297;-95
2022/08/03 05:22:40;;;;;;;1.90;1.58;;;20.20;99.90;;;;;;5070101;28;20198;-96
2022/08/03 05:25:05;;;;;;;1.92;1.65;;;20.20;99.90;;;;;;5078467;28;20206;-96
2022/08/03 05:27:31;;;;;;;3.35;1.88;;;19.70;99.90;;;;;;5066274;28;20172;-96
2022/08/03 05:29:57;;;;;;;2.35;1.80;;;20.30;99.90;;;;;;5061301;28;20211;-95
2022/08/03 05:35:45;;;;;;;1.88;1.65;;;20.40;99.90;;;;;;5294928;22;20271;-96
2022/08/03 05:38:11;;;;;;;3.08;1.83;;;;;;;;;;5058989;28;20227;-95
2022/08/03 05:40:37;;;;;;;2.63;1.83;;;;;;;;;;5058847;28;20691;-96
2022/08/03 05:43:03;;;;;;;1.40;1.30;;;;;;;;;;5058291;28;20215;-94
2022/08/03 05:45:29;;;;;;;2.45;1.60;;;;;;;;;;5040781;28;20207;-94
2022/08/03 05:47:55;;;;;;;2.17;1.40;;;20.50;99.90;;;;;;5040242;28;20625;-93
2022/08/03 05:50:20;;;;;;;2.28;1.83;;;20.60;99.90;;;;;;5057465;28;20180;-95
2022/08/03 05:52:46;;;;;;;2.88;1.52;;;20.70;99.90;;;;;;5057229;28;20548;-95
2022/08/03 05:55:12;;;;;;;1.80;1.70;;;20.80;99.90;;;;;;5057560;28;20180;-95
2022/08/03 05:57:39;;;;;;;3.28;1.63;;;20.80;99.90;;;;;;5041339;28;20176;-96
2022/08/03 06:00:10;;;;;;;1.50;1.40;;;20.80;99.90;;;;;;5040416;28;20180;-95
2022/08/03 06:02:35;;;;;;;2.13;1.65;;;20.80;99.90;;;;;;5057698;28;20222;-94
2022/08/03 06:05:02;;;;;;;1.40;1.30;;;20.80;99.90;;;;;;5038315;28;20633;-94
2022/08/03 06:07:27;;;;;;;1.63;1.30;;;20.90;99.90;;;;;;5022702;28;20183;-95
2022/08/03 06:09:53;;;;;;;2.67;1.60;;;21.00;99.90;;;;;;5023135;28;20180;-95
2022/08/03 06:12:19;;;;;;;1.90;1.25;;;21.10;99.90;;;;;;5056549;28;20172;-94
2022/08/03 06:14:44;;;;;;;2.05;1.85;;;21.30;99.90;;;;;;5022492;28;20187;-93
2022/08/03 06:17:10;;;;;;;3.03;1.88;;;21.40;99.90;;;;;;5039691;28;20629;-95
2022/08/03 06:19:36;;;;;;;2.25;1.30;;;21.60;99.90;;;;;;5038928;28;20625;-95
2022/08/03 06:22:02;;;;;;;1.83;1.65;;;21.70;99.90;;;;;;5056441;28;20204;-95
2022/08/03 06:24:27;;;;;;;2.90;1.67;;;21.80;99.90;;;;;;5056337;28;20214;-95
2022/08/03 06:26:53;;;;;;;1.83;1.42;;;21.90;99.90;;;;;;5038258;28;20188;-94
2022/08/03 06:29:19;;;;;;;1.48;1.38;;;22.00;99.90;;;;;;5021679;28;20188;-96
2022/08/03 06:31:44;;;;;;;2.15;1.60;;;22.10;99.90;;;;;;5055707;28;20176;-94
2022/08/03 06:34:10;;;;;;;1.75;1.45;;;22.20;99.90;;;;;;5037575;28;20233;-93
2022/08/03 06:36:35;;;;;;;2.95;1.40;;;22.40;99.90;;;;;;5040142;28;20238;-94
2022/08/03 06:39:02;;;;;;;1.50;1.33;;;22.50;99.90;;;;;;5055466;28;20183;-94
2022/08/03 06:41:28;;;;;;;2.45;1.67;;;22.50;99.90;;;;;;5020821;28;20295;-95
2022/08/03 06:43:54;;;;;;;2.10;1.17;;;22.60;99.90;;;;;;5021435;28;20207;-95
2022/08/03 06:46:19;;;;;;;2.22;1.42;;;22.70;99.90;;;;;;5054819;28;20671;-94
2022/08/03 06:48:45;;;;;;;1.42;1.27;;;22.70;99.90;;;;;;5054791;28;20180;-94
2022/08/03 06:51:11;;;;;;;1.73;1.58;;;22.90;99.90;;;;;;5027403;28;20196;-94
2022/08/03 06:53:37;;;;;;;3.30;1.50;;;23.00;99.90;;;;;;5027230;28;20552;-93
2022/08/03 06:56:07;;;;;;;1.70;1.60;;;23.00;99.90;;;;;;5028930;28;20549;-90
2022/08/03 06:58:33;;;;;;;1.27;1.17;;;23.10;99.90;;;;;;5015859;28;20196;-94
2022/08/03 07:00:59;;;;;;;1.40;1.30;;;23.30;99.90;;;;;;5006296;28;20223;-90
2022/08/03 07:03:25;;;;;;;2.30;1.30;;;23.40;99.90;;;;;;5043998;28;20180;-92
2022/08/03 07:05:56;;;;;;;1.40;1.30;;;23.40;99.90;;;;;;5016302;28;20187;-94
2022/08/03 07:08:23;;;;;;;1.65;1.50;;;23.50;99.90;;;;;;5032891;28;20168;-92
2022/08/03 07:10:48;;;;;;;1.80;1.20;;;23.60;99.90;;;;;;5028357;28;20665;-93
2022/08/03 07:13:17;;;;;;;1.10;1.00;;;23.70;99.90;;;;;;5032822;28;20180;-94
2022/08/03 07:15:53;;;;;;;0.80;0.80;;;23.10;99.90;;;;;;5038503;28;20215;-92
2022/08/03 07:18:19;;;;;;;1.48;0.80;;;;;;;;;;5033594;28;20191;-90
2022/08/03 07:20:45;;;;;;;0.93;0.90;;;;;;;;;;5016676;28;20302;-91
2022/08/03 07:23:11;;;;;;;0.65;0.65;;;;;;;;;;5033210;28;20176;-91
2022/08/03 07:25:37;;;;;;;0.75;0.75;;;23.90;99.90;;;;;;5051369;28;20194;-93
2022/08/03 07:28:03;;;;;;;1.73;1.15;;;23.90;99.90;;;;;;5033062;28;20171;-91
2022/08/03 07:30:28;;;;;;;1.77;1.25;;;24.00;99.90;;;;;;5034006;28;20187;-91
2022/08/03 07:32:54;;;;;;;1.17;1.08;;;24.10;99.90;;;;;;5018065;28;20214;-93
2022/08/03 07:35:21;;;;;;;1.02;0.95;;;24.20;99.90;;;;;;5033603;28;21323;-93
2022/08/03 07:37:47;;;;;;;0.73;0.70;;;24.20;99.90;;;;;;5014735;28;20188;-95
2022/08/03 07:40:14;;;;;;;1.38;1.15;;;24.20;99.90;;;;;;4993187;28;20223;-92
2022/08/03 07:42:39;;;;;;;2.33;1.35;;;24.10;99.90;;;;;;5030390;28;20188;-93
2022/08/03 07:45:07;;;;;;;2.92;1.40;;;24.20;99.90;;;;;;5014493;28;20200;-91
2022/08/03 07:47:33;;;;;;;1.20;1.10;;;24.20;99.90;;;;;;5017424;28;20704;-91
2022/08/03 07:49:59;;;;;;;1.63;1.02;;;24.20;99.90;;;;;;5049832;28;20180;-93
2022/08/03 07:55:09;;;;;;;2.55;1.17;;;24.20;99.90;;;;;;5055473;28;20240;-88
2022/08/03 07:57:35;;;;;;;2.05;1.15;;;24.20;99.90;;;;;;5071847;28;20203;-89
2022/08/03 08:00:01;;;;;;;1.55;1.23;;;24.40;99.90;;;;;;5054957;28;20545;-90
2022/08/03 08:02:27;;;;;;;1.65;1.08;;;24.50;99.90;;;;;;5047758;28;20206;-90
2022/08/03 08:04:52;;;;;;;1.20;1.10;;;24.70;99.90;;;;;;5040328;28;20913;-90
2022/08/03 08:07:18;;;;;;;1.70;1.20;;;24.80;99.90;;;;;;5011389;28;20183;-89
2022/08/03 08:09:44;;;;;;;2.25;2.00;;;24.90;99.90;;;;;;5031547;28;20178;-88
2022/08/03 08:12:11;;;;;;;1.52;1.42;;;24.90;99.90;;;;;;5064731;28;20203;-88
2022/08/03 08:14:37;;;;;;;2.08;1.30;;;25.00;99.90;;;;;;5057454;28;20253;-88
2022/08/03 08:17:02;;;;;;;1.48;1.38;;;25.00;99.90;;;;;;5043063;28;20179;-92
2022/08/03 08:19:28;;;;;;;1.20;1.10;;;25.10;99.90;;;;;;5033748;28;20187;-89
2022/08/03 08:21:53;;;;;;;1.77;1.25;;;25.10;99.90;;;;;;5036901;28;20325;-90
2022/08/03 08:24:19;;;;;;;2.08;1.50;;;25.20;99.90;;;;;;5034350;28;20183;-89
2022/08/03 08:26:45;;;;;;;4.07;2.40;;;25.30;99.90;;;;;;5050019;28;20680;-93
2022/08/03 08:29:11;;;;;;;2.47;1.73;;;25.40;99.90;;;;;;5032725;28;20187;-91
2022/08/03 08:31:36;;;;;;;1.15;1.05;;;25.40;99.90;;;;;;5026547;28;20357;-89
2022/08/03 08:34:04;;;;;;;3.15;1.85;;;25.60;99.90;;;;;;5050837;28;20672;-90
2022/08/03 08:36:32;;;;;;;1.45;1.30;;;25.80;99.90;;;;;;5044797;28;20227;-90
2022/08/03 08:38:57;;;;;;;1.55;1.20;;;25.90;99.90;;;;;;5049871;28;20188;-90
2022/08/03 08:41:23;;;;;;;2.60;1.88;;;25.90;99.90;;;;;;5033448;28;20230;-87
2022/08/03 08:43:49;;;;;;;2.10;1.20;;;25.80;99.90;;;;;;5045554;28;20199;-88
2022/08/03 08:46:15;;;;;;;6.07;2.78;;;26.00;99.90;;;;;;5053866;28;20184;-89
2022/08/03 08:48:45;;;;;;;2.20;1.67;;;25.90;99.90;;;;;;5063601;28;20196;-91
2022/08/03 08:51:12;;;;;;;1.52;1.30;;;26.00;99.90;;;;;;5029525;28;20187;-90
2022/08/03 08:53:40;;;;;;;2.00;1.23;;;26.00;98.90;;;;;;5039651;28;20176;-92
2022/08/03 08:56:06;;;;;;;1.70;1.20;;;25.90;99.80;;;;;;5038960;28;20173;-91
2022/08/03 08:58:36;;;;;;;1.25;1.15;;;25.70;98.00;;;;;;5020887;28;20216;-87
2022/08/03 09:01:03;;;;;;;1.08;0.95;;;25.50;97.10;;;;;;5004792;28;20279;-91
2022/08/03 09:03:31;;;;;;;1.35;1.15;;;25.40;98.80;;;;;;5024259;28;20185;-89
2022/08/03 09:06:01;;;;;;;1.83;1.35;;;25.20;99.80;;;;;;5047445;28;21414;-88
2022/08/03 09:08:29;;;;;;;1.30;1.20;;;25.20;99.90;;;;;;5038048;28;20668;-90
2022/08/03 09:10:54;;;;;;;1.30;1.20;;;25.30;99.90;;;;;;5042573;28;20188;-92
2022/08/03 09:13:20;;;;;;;1.45;1.35;;;25.30;99.90;;;;;;5041022;28;20633;-88
2022/08/03 09:15:46;;;;;;;1.85;1.48;;;25.40;99.90;;;;;;5018047;28;20195;-91
2022/08/03 09:18:14;;;;;;;1.42;1.30;;;25.50;99.00;;;;;;5005421;28;20200;-90
2022/08/03 09:20:39;;;;;;;1.83;0.85;;;25.70;99.90;;;;;;5030579;28;20192;-92
2022/08/03 09:23:09;;;;;;;1.48;1.20;;;25.80;99.90;;;;;;5002950;28;20599;-93
2022/08/03 09:25:40;;;;;;;1.73;1.55;;;25.90;99.90;;;;;;5024319;28;20667;-91
2022/08/03 09:28:15;;;;;;;1.48;1.17;;;25.90;99.60;;;;;;5019981;28;20173;-92
2022/08/03 09:30:58;;;;;;;1.88;1.10;;;26.00;98.10;;;;;;5019620;28;20394;-95
2022/08/03 09:33:23;;;;;;;2.20;1.35;;;26.00;97.60;;;;;;5041671;28;20644;-96
2022/08/03 09:35:49;;;;;;;1.60;1.50;;;26.10;97.10;;;;;;5017169;28;20223;-96
2022/08/03 09:38:25;;;;;;;1.77;1.50;;;26.20;96.20;;;;;;5012403;28;20191;-95
2022/08/03 09:40:51;;;;;;;2.42;1.33;;;26.30;96.40;;;;;;5011239;28;20288;-93
2022/08/03 09:43:19;;;;;;;1.30;1.10;;;26.30;96.00;;;;;;5030241;28;20180;-95
2022/08/03 09:45:45;;;;;;;1.40;1.17;;;26.30;96.50;;;;;;5043161;28;20581;-94
2022/08/03 09:48:28;;;;;;;1.20;1.17;;;26.70;95.30;;;;;;5019190;28;20206;-94
2022/08/03 09:51:02;;;;;;;0.93;0.93;;;26.90;96.30;;;;;;5047481;28;20180;-89
2022/08/03 09:53:28;;;;;;;1.65;1.15;;;27.00;95.20;;;;;;5044729;28;20175;-92
2022/08/03 09:55:55;;;;;;;1.27;1.17;;;26.90;94.60;;;;;;5043456;28;20189;-91
2022/08/03 09:58:22;;;;;;;4.13;2.28;;;26.90;94.30;;;;;;5031296;28;20231;-93
2022/08/03 10:00:54;;;;;;;1.90;1.70;;;26.80;94.40;;;;;;5024443;28;20677;-92
2022/08/03 10:03:19;;;;;;;1.35;1.25;;;27.00;94.90;;;;;;5054610;28;20684;-90
2022/08/03 10:05:45;;;;;;;1.20;1.10;;;27.20;96.70;;;;;;5032283;28;20209;-92
2022/08/03 10:08:15;;;;;;;1.35;1.25;;;27.20;93.00;;;;;;5001834;28;20176;-92
2022/08/03 10:10:43;;;;;;;1.48;1.30;;;27.10;90.40;;;;;;5031893;28;20703;-92
2022/08/03 10:13:19;;;;;;;1.55;1.00;;;27.20;92.40;;;;;;5024515;28;20180;-91
2022/08/03 10:15:48;;;;;;;1.17;1.08;;;27.00;92.70;;;;;;5034702;28;20550;-90
2022/08/03 10:18:14;;;;;;;1.30;1.08;;;26.80;94.30;;;;;;5043038;28;20179;-92
2022/08/03 10:20:53;;;;;;;1.45;1.20;;;26.70;93.10;;;;;;5007855;28;20214;-92
2022/08/03 10:23:20;;;;;;;1.67;1.30;;;26.80;93.90;;;;;;5043761;28;20180;-95
2022/08/03 10:25:51;;;;;;;1.92;1.40;;;26.80;94.90;;;;;;5047198;28;20183;-92
2022/08/03 10:28:20;;;;;;;1.15;1.02;;;26.60;92.40;;;;;;5043404;28;20194;-93
2022/08/03 10:30:49;;;;;;;1.83;1.15;;;26.50;92.50;;;;;;5033425;28;20212;-93
2022/08/03 10:33:20;;;;;;;1.15;1.02;;;26.30;92.30;;;;;;5040280;28;20181;-94
2022/08/03 10:35:51;;;;;;;2.22;1.27;;;26.20;93.80;;;;;;5025384;28;20227;-92
2022/08/03 10:38:21;;;;;;;1.15;1.05;;;26.10;94.80;;;;;;5019196;28;20184;-92
2022/08/03 10:40:52;;;;;;;1.60;1.50;;;26.00;94.80;;;;;;5055202;28;20208;-94
2022/08/03 10:43:35;;;;;;;2.25;1.63;;;25.90;95.30;;;;;;5041087;28;20648;-90
2022/08/03 10:46:03;;;;;;;1.27;1.17;;;25.90;94.80;;;;;;5022344;28;20649;-95
2022/08/03 10:48:30;;;;;;;1.30;1.20;;;25.80;95.00;;;;;;5035371;28;20203;-94
2022/08/03 10:50:59;;;;;;;1.80;1.40;;;25.70;95.50;;;;;;5025948;28;20248;-92
2022/08/03 10:53:42;;;;;;;1.23;1.13;;;25.60;96.10;;;;;;5030964;28;20643;-93
2022/08/03 10:59:44;;;;;;;1.42;1.23;;;25.50;95.80;;;;;;4994477;28;20261;-94
2022/08/03 11:02:12;;;;;;;3.00;1.27;;;25.40;96.80;;;;;;5042858;28;20203;-95
2022/08/03 11:04:38;;;;;;;3.83;1.45;;;25.40;97.10;;;;;;5042007;28;20191;-95
2022/08/03 11:07:21;;;;;;;1.00;0.90;;;25.50;97.60;;;;;;5008099;28;20208;-95
2022/08/03 11:09:49;;;;;;;1.50;1.02;;;25.50;97.20;;;;;;5028619;28;20191;-96
2022/08/03 11:12:28;;;;;;;1.50;1.40;;;25.60;98.70;;;;;;5021446;28;20264;-95
2022/08/03 11:14:55;;;;;;;1.30;1.20;;;25.70;97.40;;;;;;5022419;28;20307;-93
2022/08/03 11:17:21;;;;;;;0.80;0.80;;;25.80;96.60;;;;;;5040447;28;20648;-93
2022/08/03 11:19:52;;;;;;;1.63;1.25;;;25.80;95.80;;;;;;5022979;28;20263;-91
2022/08/03 11:22:19;;;;;;;1.35;1.25;;;25.80;97.10;;;;;;5025209;28;20610;-94
2022/08/03 11:24:46;;;;;;;1.60;1.27;;;25.80;93.50;;;;;;5006444;28;20192;-92
2022/08/03 11:27:19;;;;;;;1.60;1.50;;;25.90;95.50;;;;;;5025419;28;20195;-92
2022/08/03 11:30:07;;;;;;;1.48;1.27;;;26.30;95.50;;;;;;5038967;28;20271;-93
2022/08/03 11:32:39;;;;;;;6.28;2.58;;;26.70;94.60;;;;;;5032924;28;20239;-92
2022/08/03 11:35:09;;;;;;;3.13;1.90;;;27.00;93.60;;;;;;5042009;28;20191;-92
2022/08/03 11:37:36;;;;;;;3.92;2.72;;;27.30;92.40;;;;;;5027459;28;20223;-94
2022/08/03 11:40:02;;;;;;;2.38;1.77;;;27.10;90.90;;;;;;5010594;28;20188;-95
2022/08/03 11:42:28;;;;;;;1.33;1.23;;;26.80;90.30;;;;;;5037439;28;20199;-91
2022/08/03 11:44:58;;;;;;;1.52;1.42;;;26.70;90.50;;;;;;5049930;28;20228;-91
2022/08/03 11:47:28;;;;;;;1.75;1.20;;;26.80;92.10;;;;;;5063971;28;20191;-90
2022/08/03 11:49:57;;;;;;;2.33;1.63;;;27.10;92.10;;;;;;5054252;28;20341;-90
2022/08/03 11:52:24;;;;;;;1.25;1.13;;;27.10;91.40;;;;;;5072800;28;20186;-93
2022/08/03 11:54:51;;;;;;;2.13;1.90;;;27.40;90.60;;;;;;5016266;28;20180;-92
2022/08/03 11:57:30;;;;;;;2.08;1.88;;;27.50;90.90;;;;;;5048042;28;20683;-91
2022/08/03 11:59:56;;;;;;;1.30;1.20;;;27.80;91.30;;;;;;5027808;28;20191;-92
2022/08/03 12:02:21;;;;;;;2.47;1.80;;;28.20;90.80;;;;;;4998071;28;20695;-92
2022/08/03 12:05:01;;;;;;;2.60;1.92;;;28.30;85.80;;;;;;5005949;28;20180;-93
2022/08/03 12:07:29;;;;;;;1.52;1.35;;;28.10;87.10;;;;;;5033734;28;20172;-91
2022/08/03 12:10:09;;;;;;;1.40;1.30;;;28.00;87.60;;;;;;5025889;28;20172;-92
2022/08/03 12:12:36;;;;;;;1.30;1.20;;;27.90;88.20;;;;;;5034278;28;20183;-91
2022/08/03 12:15:03;;;;;;;1.98;1.40;;;27.60;84.10;;;;;;5017688;28;20724;-92
2022/08/03 12:17:36;;;;;;;1.30;1.10;;;27.40;85.50;;;;;;5026007;28;20266;-89
2022/08/03 12:20:03;;;;;;;2.22;1.58;;;27.20;87.60;;;;;;5039052;28;20183;-89
2022/08/03 12:22:39;;;;;;;1.17;1.08;;;27.00;90.10;;;;;;5055985;28;20636;-92
2022/08/03 12:25:08;;;;;;;1.83;1.20;;;26.70;90.10;;;;;;5022908;28;20179;-90
2022/08/03 12:27:34;;;;;;;2.33;1.73;;;26.50;90.80;;;;;;5042993;28;20192;-90
2022/08/03 12:30:02;;;;;;;2.20;1.20;;;26.40;90.70;;;;;;5030813;28;20270;-90
2022/08/03 12:32:29;;;;;;;2.25;1.58;;;26.40;91.70;;;;;;5050299;28;20195;-88
2022/08/03 12:34:59;;;;;;;4.70;1.40;;;26.40;92.50;;;;;;5069647;28;20206;-88
2022/08/03 12:37:25;;;;;;;1.50;1.40;;;26.40;91.10;;;;;;5064780;28;20250;-91
2022/08/03 12:39:52;;;;;;;1.35;1.25;;;26.30;90.80;;;;;;5070824;28;20180;-90
2022/08/03 12:42:18;;;;;;;2.03;1.83;;;26.30;91.00;;;;;;5026170;28;20203;-90
2022/08/03 12:44:44;;;;;;;2.45;1.58;;;26.40;91.60;;;;;;5021459;28;20271;-90
2022/08/03 12:47:11;;;;;;;1.65;1.33;;;26.70;91.90;;;;;;5039681;28;20192;-90
2022/08/03 12:49:47;;;;;;;3.35;2.10;;;27.10;90.60;;;;;;5022182;28;20210;-89
2022/08/03 12:52:15;;;;;;;2.58;1.60;;;27.40;89.10;;;;;;5021830;28;20219;-90
2022/08/03 12:54:41;;;;;;;1.50;1.40;;;27.60;87.90;;;;;;5056111;28;20191;-90
2022/08/03 12:57:11;;;;;;;1.65;1.52;;;27.80;85.00;;;;;;5056420;28;20184;-90
2022/08/03 12:59:41;;;;;;;2.00;1.17;;;27.70;85.10;;;;;;5038715;28;20188;-90
2022/08/03 13:02:24;;;;;;;2.38;1.60;;;27.70;85.70;;;;;;5055324;28;21054;-89
2022/08/03 13:04:52;;;;;;;1.20;1.10;;;27.90;81.00;;;;;;5032971;28;20190;-89
2022/08/03 13:07:18;;;;;;;1.50;1.40;;;27.80;81.60;;;;;;5038076;28;20238;-89